Bath, Michigan
Current Conditions -  °F | °C
As of 5:53 AM on Sunday 23 Nov 2014 (Local Time) from KLAN Reporting Station
Overcast Overcast  
Wind Chill: 44°   Ceiling: 2300
Heat Index: 49°   Visibility: 8mi
Dew Point: 45°   Wind: 13mph
Humidity: 86%   Direction: 200°SSW
Pressure: 29.87"   Gusts: NA
Location:  42.82°N, 84.45°W
Report Text: KLAN 231053Z 20011KT 8SM SCT016 OVC023 09/07 A2987 RMK AO2 SLP119 T00940072 $
Loading
Personal Weather Stations






























Interactive Weather Map New forecast layout! Learn more

10-Day Weather Forecast

Advertisements
Track Severe Weather on mobile